sensor_id;sensor_type;location;lat;lon;timestamp;P1;durP1;ratioP1;P2;durP2;ratioP2
78783;SDS011;68127;51.050;14.084;2023-12-20T00:01:14;6.45;;;3.65;;
78783;SDS011;68127;51.050;14.084;2023-12-20T00:03:39;7.07;;;3.40;;
78783;SDS011;68127;51.050;14.084;2023-12-20T00:06:05;6.78;;;3.72;;
78783;SDS011;68127;51.050;14.084;2023-12-20T00:08:30;7.28;;;4.10;;
78783;SDS011;68127;51.050;14.084;2023-12-20T00:10:55;6.75;;;3.80;;
78783;SDS011;68127;51.050;14.084;2023-12-20T00:13:20;6.85;;;3.35;;
78783;SDS011;68127;51.050;14.084;2023-12-20T00:15:46;6.45;;;3.60;;
78783;SDS011;68127;51.050;14.084;2023-12-20T00:18:11;6.18;;;3.72;;
78783;SDS011;68127;51.050;14.084;2023-12-20T00:20:36;6.20;;;3.67;;
78783;SDS011;68127;51.050;14.084;2023-12-20T00:23:01;6.10;;;3.75;;
78783;SDS011;68127;51.050;14.084;2023-12-20T00:25:28;6.93;;;3.88;;
78783;SDS011;68127;51.050;14.084;2023-12-20T00:27:53;7.13;;;3.90;;
78783;SDS011;68127;51.050;14.084;2023-12-20T00:30:18;5.45;;;3.08;;
78783;SDS011;68127;51.050;14.084;2023-12-20T00:32:44;6.07;;;3.40;;
78783;SDS011;68127;51.050;14.084;2023-12-20T00:35:14;6.25;;;3.95;;
78783;SDS011;68127;51.050;14.084;2023-12-20T00:37:40;5.97;;;3.60;;
78783;SDS011;68127;51.050;14.084;2023-12-20T00:40:05;6.20;;;3.95;;
78783;SDS011;68127;51.050;14.084;2023-12-20T00:42:31;5.10;;;2.92;;
78783;SDS011;68127;51.050;14.084;2023-12-20T00:44:57;6.35;;;3.50;;
78783;SDS011;68127;51.050;14.084;2023-12-20T00:47:23;6.50;;;3.53;;
78783;SDS011;68127;51.050;14.084;2023-12-20T00:49:48;6.13;;;3.60;;
78783;SDS011;68127;51.050;14.084;2023-12-20T00:52:13;6.97;;;3.53;;
78783;SDS011;68127;51.050;14.084;2023-12-20T00:54:39;5.53;;;3.38;;
78783;SDS011;68127;51.050;14.084;2023-12-20T00:57:04;6.00;;;3.40;;
78783;SDS011;68127;51.050;14.084;2023-12-20T00:59:30;6.57;;;3.53;;
78783;SDS011;68127;51.050;14.084;2023-12-20T01:01:55;6.40;;;3.55;;
78783;SDS011;68127;51.050;14.084;2023-12-20T01:04:20;6.32;;;3.47;;
78783;SDS011;68127;51.050;14.084;2023-12-20T01:06:46;6.53;;;3.80;;
78783;SDS011;68127;51.050;14.084;2023-12-20T01:09:11;7.10;;;3.65;;
78783;SDS011;68127;51.050;14.084;2023-12-20T01:11:37;6.15;;;3.50;;
78783;SDS011;68127;51.050;14.084;2023-12-20T01:14:02;5.88;;;3.58;;
78783;SDS011;68127;51.050;14.084;2023-12-20T01:16:27;9.45;;;3.50;;
78783;SDS011;68127;51.050;14.084;2023-12-20T01:18:53;6.15;;;3.42;;
78783;SDS011;68127;51.050;14.084;2023-12-20T01:21:18;5.82;;;3.72;;
78783;SDS011;68127;51.050;14.084;2023-12-20T01:23:43;5.25;;;3.20;;
78783;SDS011;68127;51.050;14.084;2023-12-20T01:26:08;5.18;;;3.00;;
78783;SDS011;68127;51.050;14.084;2023-12-20T01:28:34;4.82;;;3.08;;
78783;SDS011;68127;51.050;14.084;2023-12-20T01:30:59;5.78;;;3.08;;
78783;SDS011;68127;51.050;14.084;2023-12-20T01:33:24;5.05;;;2.95;;
78783;SDS011;68127;51.050;14.084;2023-12-20T01:35:49;5.93;;;2.75;;
78783;SDS011;68127;51.050;14.084;2023-12-20T01:38:15;5.93;;;3.10;;
78783;SDS011;68127;51.050;14.084;2023-12-20T01:40:43;4.85;;;2.75;;
78783;SDS011;68127;51.050;14.084;2023-12-20T01:43:08;4.78;;;2.65;;
78783;SDS011;68127;51.050;14.084;2023-12-20T01:45:34;4.65;;;2.80;;
78783;SDS011;68127;51.050;14.084;2023-12-20T01:48:00;4.07;;;2.45;;
78783;SDS011;68127;51.050;14.084;2023-12-20T01:50:28;5.32;;;2.72;;
78783;SDS011;68127;51.050;14.084;2023-12-20T01:52:53;5.03;;;2.40;;
78783;SDS011;68127;51.050;14.084;2023-12-20T01:55:22;5.60;;;2.80;;
78783;SDS011;68127;51.050;14.084;2023-12-20T01:57:48;5.35;;;2.60;;
78783;SDS011;68127;51.050;14.084;2023-12-20T02:00:13;4.72;;;2.33;;
78783;SDS011;68127;51.050;14.084;2023-12-20T02:02:40;5.28;;;2.70;;
78783;SDS011;68127;51.050;14.084;2023-12-20T02:05:06;4.70;;;2.63;;
78783;SDS011;68127;51.050;14.084;2023-12-20T02:07:31;4.60;;;2.35;;
78783;SDS011;68127;51.050;14.084;2023-12-20T02:09:57;4.80;;;2.30;;
78783;SDS011;68127;51.050;14.084;2023-12-20T02:12:22;4.22;;;2.40;;
78783;SDS011;68127;51.050;14.084;2023-12-20T02:14:48;4.10;;;2.40;;
78783;SDS011;68127;51.050;14.084;2023-12-20T02:17:13;4.05;;;2.55;;
78783;SDS011;68127;51.050;14.084;2023-12-20T02:19:38;4.30;;;2.30;;
78783;SDS011;68127;51.050;14.084;2023-12-20T02:22:05;4.72;;;2.70;;
78783;SDS011;68127;51.050;14.084;2023-12-20T02:24:32;3.90;;;2.10;;
78783;SDS011;68127;51.050;14.084;2023-12-20T02:26:57;4.55;;;2.67;;
78783;SDS011;68127;51.050;14.084;2023-12-20T02:29:23;4.57;;;2.30;;
78783;SDS011;68127;51.050;14.084;2023-12-20T02:31:48;4.80;;;2.20;;
78783;SDS011;68127;51.050;14.084;2023-12-20T02:34:13;5.85;;;2.65;;
78783;SDS011;68127;51.050;14.084;2023-12-20T02:36:38;4.20;;;2.50;;
78783;SDS011;68127;51.050;14.084;2023-12-20T02:39:04;4.18;;;2.30;;
78783;SDS011;68127;51.050;14.084;2023-12-20T02:41:29;3.67;;;2.30;;
78783;SDS011;68127;51.050;14.084;2023-12-20T02:43:54;3.85;;;2.30;;
78783;SDS011;68127;51.050;14.084;2023-12-20T02:46:19;4.07;;;2.30;;
78783;SDS011;68127;51.050;14.084;2023-12-20T02:48:45;3.90;;;2.00;;
78783;SDS011;68127;51.050;14.084;2023-12-20T02:51:12;3.75;;;1.95;;
78783;SDS011;68127;51.050;14.084;2023-12-20T02:53:37;4.47;;;2.20;;
78783;SDS011;68127;51.050;14.084;2023-12-20T02:56:02;4.30;;;2.40;;
78783;SDS011;68127;51.050;14.084;2023-12-20T02:58:28;3.90;;;2.20;;
78783;SDS011;68127;51.050;14.084;2023-12-20T03:00:53;4.40;;;2.17;;
78783;SDS011;68127;51.050;14.084;2023-12-20T03:03:18;3.83;;;1.90;;
78783;SDS011;68127;51.050;14.084;2023-12-20T03:05:44;3.65;;;2.00;;
78783;SDS011;68127;51.050;14.084;2023-12-20T03:08:10;3.63;;;1.92;;
78783;SDS011;68127;51.050;14.084;2023-12-20T03:10:36;3.58;;;1.92;;
78783;SDS011;68127;51.050;14.084;2023-12-20T03:13:01;4.00;;;2.28;;
78783;SDS011;68127;51.050;14.084;2023-12-20T03:15:26;3.80;;;1.95;;
78783;SDS011;68127;51.050;14.084;2023-12-20T03:17:51;3.40;;;1.80;;
78783;SDS011;68127;51.050;14.084;2023-12-20T03:20:17;4.38;;;2.00;;
78783;SDS011;68127;51.050;14.084;2023-12-20T03:22:42;3.88;;;2.00;;
78783;SDS011;68127;51.050;14.084;2023-12-20T03:25:07;4.80;;;2.30;;
78783;SDS011;68127;51.050;14.084;2023-12-20T03:27:32;3.35;;;1.67;;
78783;SDS011;68127;51.050;14.084;2023-12-20T03:29:58;3.38;;;1.90;;
78783;SDS011;68127;51.050;14.084;2023-12-20T03:32:23;4.05;;;1.98;;
78783;SDS011;68127;51.050;14.084;2023-12-20T03:34:48;3.50;;;2.00;;
78783;SDS011;68127;51.050;14.084;2023-12-20T03:37:13;4.85;;;2.65;;
78783;SDS011;68127;51.050;14.084;2023-12-20T03:39:39;4.75;;;2.17;;
78783;SDS011;68127;51.050;14.084;2023-12-20T03:42:04;3.50;;;1.80;;
78783;SDS011;68127;51.050;14.084;2023-12-20T03:44:29;4.43;;;1.90;;
78783;SDS011;68127;51.050;14.084;2023-12-20T03:46:55;4.03;;;2.15;;
78783;SDS011;68127;51.050;14.084;2023-12-20T03:49:20;3.90;;;2.00;;
78783;SDS011;68127;51.050;14.084;2023-12-20T03:51:45;3.50;;;1.90;;
78783;SDS011;68127;51.050;14.084;2023-12-20T03:54:10;3.08;;;1.65;;
78783;SDS011;68127;51.050;14.084;2023-12-20T03:56:36;3.53;;;1.95;;
78783;SDS011;68127;51.050;14.084;2023-12-20T03:59:01;3.72;;;2.15;;
78783;SDS011;68127;51.050;14.084;2023-12-20T04:01:26;4.40;;;1.90;;
78783;SDS011;68127;51.050;14.084;2023-12-20T04:03:51;4.13;;;2.00;;
78783;SDS011;68127;51.050;14.084;2023-12-20T04:06:17;3.20;;;1.95;;
78783;SDS011;68127;51.050;14.084;2023-12-20T04:08:43;3.25;;;1.90;;
78783;SDS011;68127;51.050;14.084;2023-12-20T04:11:08;3.80;;;2.00;;
78783;SDS011;68127;51.050;14.084;2023-12-20T04:13:33;3.80;;;2.13;;
78783;SDS011;68127;51.050;14.084;2023-12-20T04:15:58;4.28;;;2.20;;
78783;SDS011;68127;51.050;14.084;2023-12-20T04:18:24;3.28;;;1.90;;
78783;SDS011;68127;51.050;14.084;2023-12-20T04:20:49;3.63;;;1.92;;
78783;SDS011;68127;51.050;14.084;2023-12-20T04:23:14;3.60;;;1.92;;
78783;SDS011;68127;51.050;14.084;2023-12-20T04:25:40;3.33;;;1.80;;
78783;SDS011;68127;51.050;14.084;2023-12-20T04:28:05;3.08;;;1.70;;
78783;SDS011;68127;51.050;14.084;2023-12-20T04:30:30;3.55;;;2.00;;
78783;SDS011;68127;51.050;14.084;2023-12-20T04:32:56;3.83;;;2.10;;
78783;SDS011;68127;51.050;14.084;2023-12-20T04:35:22;3.75;;;1.80;;
78783;SDS011;68127;51.050;14.084;2023-12-20T04:37:47;3.60;;;2.03;;
78783;SDS011;68127;51.050;14.084;2023-12-20T04:40:14;3.58;;;1.90;;
78783;SDS011;68127;51.050;14.084;2023-12-20T04:42:39;3.63;;;1.92;;
78783;SDS011;68127;51.050;14.084;2023-12-20T04:45:05;3.72;;;2.00;;
78783;SDS011;68127;51.050;14.084;2023-12-20T04:47:30;3.35;;;2.00;;
78783;SDS011;68127;51.050;14.084;2023-12-20T04:49:55;3.60;;;2.20;;
78783;SDS011;68127;51.050;14.084;2023-12-20T04:52:21;3.90;;;2.20;;
78783;SDS011;68127;51.050;14.084;2023-12-20T04:54:46;3.40;;;1.90;;
78783;SDS011;68127;51.050;14.084;2023-12-20T04:57:12;2.88;;;1.70;;
78783;SDS011;68127;51.050;14.084;2023-12-20T04:59:37;3.67;;;1.92;;
78783;SDS011;68127;51.050;14.084;2023-12-20T05:02:02;3.17;;;1.70;;
78783;SDS011;68127;51.050;14.084;2023-12-20T05:04:27;3.35;;;1.90;;
78783;SDS011;68127;51.050;14.084;2023-12-20T05:06:53;4.97;;;1.80;;
78783;SDS011;68127;51.050;14.084;2023-12-20T05:09:18;3.38;;;1.80;;
78783;SDS011;68127;51.050;14.084;2023-12-20T05:11:43;4.13;;;2.30;;
78783;SDS011;68127;51.050;14.084;2023-12-20T05:14:08;3.78;;;2.10;;
78783;SDS011;68127;51.050;14.084;2023-12-20T05:16:34;3.55;;;1.90;;
78783;SDS011;68127;51.050;14.084;2023-12-20T05:18:59;3.38;;;2.10;;
78783;SDS011;68127;51.050;14.084;2023-12-20T05:21:25;3.72;;;2.00;;
78783;SDS011;68127;51.050;14.084;2023-12-20T05:23:51;3.72;;;2.08;;
78783;SDS011;68127;51.050;14.084;2023-12-20T05:26:16;3.58;;;2.15;;
78783;SDS011;68127;51.050;14.084;2023-12-20T05:28:41;3.42;;;1.98;;
78783;SDS011;68127;51.050;14.084;2023-12-20T05:31:07;3.97;;;2.22;;
78783;SDS011;68127;51.050;14.084;2023-12-20T05:33:32;4.75;;;2.25;;
78783;SDS011;68127;51.050;14.084;2023-12-20T05:35:57;3.90;;;2.33;;
78783;SDS011;68127;51.050;14.084;2023-12-20T05:38:22;3.92;;;2.28;;
78783;SDS011;68127;51.050;14.084;2023-12-20T05:40:48;3.83;;;2.20;;
78783;SDS011;68127;51.050;14.084;2023-12-20T05:43:13;3.53;;;2.00;;
78783;SDS011;68127;51.050;14.084;2023-12-20T05:45:38;4.30;;;2.30;;
78783;SDS011;68127;51.050;14.084;2023-12-20T05:48:04;4.00;;;2.30;;
78783;SDS011;68127;51.050;14.084;2023-12-20T05:50:29;4.15;;;2.45;;
78783;SDS011;68127;51.050;14.084;2023-12-20T05:52:55;4.65;;;2.38;;
78783;SDS011;68127;51.050;14.084;2023-12-20T05:55:20;3.65;;;2.25;;
78783;SDS011;68127;51.050;14.084;2023-12-20T05:57:45;4.00;;;2.33;;
78783;SDS011;68127;51.050;14.084;2023-12-20T06:00:12;4.05;;;2.28;;
78783;SDS011;68127;51.050;14.084;2023-12-20T06:02:38;4.70;;;2.70;;
78783;SDS011;68127;51.050;14.084;2023-12-20T06:05:06;3.80;;;2.22;;
78783;SDS011;68127;51.050;14.084;2023-12-20T06:07:31;3.38;;;2.03;;
78783;SDS011;68127;51.050;14.084;2023-12-20T06:09:57;4.97;;;2.70;;
78783;SDS011;68127;51.050;14.084;2023-12-20T06:12:22;4.30;;;2.65;;
78783;SDS011;68127;51.050;14.084;2023-12-20T06:14:47;3.88;;;2.45;;
78783;SDS011;68127;51.050;14.084;2023-12-20T06:17:15;4.10;;;2.40;;
78783;SDS011;68127;51.050;14.084;2023-12-20T06:19:43;4.10;;;2.42;;
78783;SDS011;68127;51.050;14.084;2023-12-20T06:22:13;4.43;;;2.50;;
78783;SDS011;68127;51.050;14.084;2023-12-20T06:24:38;4.82;;;2.40;;
78783;SDS011;68127;51.050;14.084;2023-12-20T06:27:03;4.43;;;2.30;;
78783;SDS011;68127;51.050;14.084;2023-12-20T06:29:28;4.28;;;2.40;;
78783;SDS011;68127;51.050;14.084;2023-12-20T06:31:54;4.10;;;2.42;;
78783;SDS011;68127;51.050;14.084;2023-12-20T06:34:19;4.05;;;2.47;;
78783;SDS011;68127;51.050;14.084;2023-12-20T06:36:44;5.65;;;2.80;;
78783;SDS011;68127;51.050;14.084;2023-12-20T06:39:09;5.82;;;2.78;;
78783;SDS011;68127;51.050;14.084;2023-12-20T06:41:37;3.80;;;2.30;;
78783;SDS011;68127;51.050;14.084;2023-12-20T06:44:02;4.93;;;2.90;;
78783;SDS011;68127;51.050;14.084;2023-12-20T06:46:27;5.50;;;2.67;;
78783;SDS011;68127;51.050;14.084;2023-12-20T06:48:53;4.97;;;3.00;;
78783;SDS011;68127;51.050;14.084;2023-12-20T06:51:18;4.50;;;2.97;;
78783;SDS011;68127;51.050;14.084;2023-12-20T06:53:45;4.40;;;2.77;;
78783;SDS011;68127;51.050;14.084;2023-12-20T06:56:10;4.97;;;3.30;;
78783;SDS011;68127;51.050;14.084;2023-12-20T06:58:36;5.20;;;3.30;;
78783;SDS011;68127;51.050;14.084;2023-12-20T07:01:02;5.93;;;3.60;;
78783;SDS011;68127;51.050;14.084;2023-12-20T07:03:28;6.72;;;3.28;;
78783;SDS011;68127;51.050;14.084;2023-12-20T07:05:53;5.75;;;3.58;;
78783;SDS011;68127;51.050;14.084;2023-12-20T07:08:18;5.35;;;3.58;;
78783;SDS011;68127;51.050;14.084;2023-12-20T07:10:44;6.07;;;3.80;;
78783;SDS011;68127;51.050;14.084;2023-12-20T07:13:09;8.13;;;3.70;;
78783;SDS011;68127;51.050;14.084;2023-12-20T07:15:34;6.15;;;3.50;;
78783;SDS011;68127;51.050;14.084;2023-12-20T07:18:01;5.35;;;3.10;;
78783;SDS011;68127;51.050;14.084;2023-12-20T07:20:27;5.20;;;3.22;;
78783;SDS011;68127;51.050;14.084;2023-12-20T07:22:52;12.07;;;3.47;;
78783;SDS011;68127;51.050;14.084;2023-12-20T07:25:17;5.30;;;2.50;;
78783;SDS011;68127;51.050;14.084;2023-12-20T07:27:42;4.75;;;2.80;;
78783;SDS011;68127;51.050;14.084;2023-12-20T07:30:08;5.47;;;2.72;;
78783;SDS011;68127;51.050;14.084;2023-12-20T07:32:35;5.00;;;2.58;;
78783;SDS011;68127;51.050;14.084;2023-12-20T07:35:00;6.30;;;2.67;;
78783;SDS011;68127;51.050;14.084;2023-12-20T07:37:25;6.75;;;2.63;;
78783;SDS011;68127;51.050;14.084;2023-12-20T07:39:50;6.40;;;2.53;;
78783;SDS011;68127;51.050;14.084;2023-12-20T07:42:16;6.75;;;2.50;;
78783;SDS011;68127;51.050;14.084;2023-12-20T07:44:41;5.38;;;2.30;;
78783;SDS011;68127;51.050;14.084;2023-12-20T07:47:06;3.97;;;2.55;;
78783;SDS011;68127;51.050;14.084;2023-12-20T07:49:32;5.68;;;2.40;;
78783;SDS011;68127;51.050;14.084;2023-12-20T07:51:57;9.20;;;3.13;;
78783;SDS011;68127;51.050;14.084;2023-12-20T07:54:22;6.05;;;2.78;;
78783;SDS011;68127;51.050;14.084;2023-12-20T07:56:48;5.45;;;2.83;;
78783;SDS011;68127;51.050;14.084;2023-12-20T07:59:13;7.97;;;3.47;;
78783;SDS011;68127;51.050;14.084;2023-12-20T08:01:39;7.55;;;4.60;;
78783;SDS011;68127;51.050;14.084;2023-12-20T08:04:04;9.50;;;6.65;;
78783;SDS011;68127;51.050;14.084;2023-12-20T08:06:30;8.38;;;5.47;;
78783;SDS011;68127;51.050;14.084;2023-12-20T08:08:55;12.07;;;6.13;;
78783;SDS011;68127;51.050;14.084;2023-12-20T08:11:20;7.13;;;4.50;;
78783;SDS011;68127;51.050;14.084;2023-12-20T08:13:46;8.75;;;5.47;;
78783;SDS011;68127;51.050;14.084;2023-12-20T08:16:11;8.65;;;5.70;;
78783;SDS011;68127;51.050;14.084;2023-12-20T08:18:38;12.00;;;6.07;;
78783;SDS011;68127;51.050;14.084;2023-12-20T08:21:03;10.43;;;6.15;;
78783;SDS011;68127;51.050;14.084;2023-12-20T08:23:29;8.55;;;5.70;;
78783;SDS011;68127;51.050;14.084;2023-12-20T08:25:54;7.70;;;5.57;;
78783;SDS011;68127;51.050;14.084;2023-12-20T08:28:19;7.30;;;4.97;;
78783;SDS011;68127;51.050;14.084;2023-12-20T08:30:45;7.00;;;4.68;;
78783;SDS011;68127;51.050;14.084;2023-12-20T08:33:10;8.70;;;4.45;;
78783;SDS011;68127;51.050;14.084;2023-12-20T08:35:37;6.70;;;4.28;;
78783;SDS011;68127;51.050;14.084;2023-12-20T08:38:03;6.75;;;4.05;;
78783;SDS011;68127;51.050;14.084;2023-12-20T08:40:29;6.82;;;3.92;;
78783;SDS011;68127;51.050;14.084;2023-12-20T08:42:54;5.90;;;4.03;;
78783;SDS011;68127;51.050;14.084;2023-12-20T08:45:20;5.90;;;3.50;;
78783;SDS011;68127;51.050;14.084;2023-12-20T08:47:45;7.57;;;4.20;;
78783;SDS011;68127;51.050;14.084;2023-12-20T08:50:10;6.68;;;3.63;;
78783;SDS011;68127;51.050;14.084;2023-12-20T08:52:36;6.95;;;3.47;;
78783;SDS011;68127;51.050;14.084;2023-12-20T08:55:01;5.28;;;2.88;;
78783;SDS011;68127;51.050;14.084;2023-12-20T08:57:26;6.07;;;2.95;;
78783;SDS011;68127;51.050;14.084;2023-12-20T08:59:51;6.57;;;2.78;;
78783;SDS011;68127;51.050;14.084;2023-12-20T09:02:17;5.28;;;3.00;;
78783;SDS011;68127;51.050;14.084;2023-12-20T09:04:42;7.70;;;2.50;;
78783;SDS011;68127;51.050;14.084;2023-12-20T09:07:21;3.90;;;2.35;;
78783;SDS011;68127;51.050;14.084;2023-12-20T09:09:49;5.40;;;2.83;;
78783;SDS011;68127;51.050;14.084;2023-12-20T09:12:14;4.50;;;2.55;;
78783;SDS011;68127;51.050;14.084;2023-12-20T09:14:40;4.35;;;2.70;;
78783;SDS011;68127;51.050;14.084;2023-12-20T09:17:05;7.93;;;2.50;;
78783;SDS011;68127;51.050;14.084;2023-12-20T09:19:33;4.35;;;2.13;;
78783;SDS011;68127;51.050;14.084;2023-12-20T09:21:58;6.15;;;2.33;;
78783;SDS011;68127;51.050;14.084;2023-12-20T09:24:23;5.80;;;2.10;;
78783;SDS011;68127;51.050;14.084;2023-12-20T09:26:48;4.40;;;2.10;;
78783;SDS011;68127;51.050;14.084;2023-12-20T09:29:14;6.10;;;1.95;;
78783;SDS011;68127;51.050;14.084;2023-12-20T09:31:40;4.45;;;1.90;;
78783;SDS011;68127;51.050;14.084;2023-12-20T09:34:06;4.90;;;2.03;;
78783;SDS011;68127;51.050;14.084;2023-12-20T09:36:31;4.93;;;1.80;;
78783;SDS011;68127;51.050;14.084;2023-12-20T09:39:01;4.57;;;1.60;;
78783;SDS011;68127;51.050;14.084;2023-12-20T09:41:26;3.45;;;1.58;;
78783;SDS011;68127;51.050;14.084;2023-12-20T09:43:53;5.00;;;1.65;;
78783;SDS011;68127;51.050;14.084;2023-12-20T09:46:19;3.65;;;1.70;;
78783;SDS011;68127;51.050;14.084;2023-12-20T09:48:49;3.88;;;1.88;;
78783;SDS011;68127;51.050;14.084;2023-12-20T09:51:15;4.60;;;1.70;;
78783;SDS011;68127;51.050;14.084;2023-12-20T09:53:40;2.90;;;1.58;;
78783;SDS011;68127;51.050;14.084;2023-12-20T09:56:06;4.55;;;1.73;;
78783;SDS011;68127;51.050;14.084;2023-12-20T09:58:32;6.20;;;2.17;;
78783;SDS011;68127;51.050;14.084;2023-12-20T10:00:58;5.68;;;2.22;;
78783;SDS011;68127;51.050;14.084;2023-12-20T10:03:24;4.72;;;1.92;;
78783;SDS011;68127;51.050;14.084;2023-12-20T10:05:52;4.07;;;1.98;;
78783;SDS011;68127;51.050;14.084;2023-12-20T10:08:17;4.35;;;2.08;;
78783;SDS011;68127;51.050;14.084;2023-12-20T10:10:47;5.97;;;1.88;;
78783;SDS011;68127;51.050;14.084;2023-12-20T10:13:12;8.18;;;2.00;;
78783;SDS011;68127;51.050;14.084;2023-12-20T10:15:38;5.07;;;2.10;;
78783;SDS011;68127;51.050;14.084;2023-12-20T10:18:03;5.03;;;1.60;;
78783;SDS011;68127;51.050;14.084;2023-12-20T10:20:30;8.77;;;2.33;;
78783;SDS011;68127;51.050;14.084;2023-12-20T10:22:56;5.82;;;2.20;;
78783;SDS011;68127;51.050;14.084;2023-12-20T10:25:22;5.05;;;1.77;;
78783;SDS011;68127;51.050;14.084;2023-12-20T10:27:49;4.70;;;2.00;;
78783;SDS011;68127;51.050;14.084;2023-12-20T10:30:14;6.55;;;2.10;;
78783;SDS011;68127;51.050;14.084;2023-12-20T10:32:40;3.35;;;1.95;;
78783;SDS011;68127;51.050;14.084;2023-12-20T10:35:06;6.05;;;2.03;;
78783;SDS011;68127;51.050;14.084;2023-12-20T10:37:32;4.90;;;2.22;;
78783;SDS011;68127;51.050;14.084;2023-12-20T10:40:00;4.15;;;1.88;;
78783;SDS011;68127;51.050;14.084;2023-12-20T10:42:28;8.32;;;2.05;;
78783;SDS011;68127;51.050;14.084;2023-12-20T10:44:54;6.25;;;2.40;;
78783;SDS011;68127;51.050;14.084;2023-12-20T10:47:20;10.95;;;4.55;;
78783;SDS011;68127;51.050;14.084;2023-12-20T10:49:46;5.28;;;2.20;;
78783;SDS011;68127;51.050;14.084;2023-12-20T10:55:34;5.30;;;2.10;;
78783;SDS011;68127;51.050;14.084;2023-12-20T10:58:06;5.32;;;1.60;;
78783;SDS011;68127;51.050;14.084;2023-12-20T11:00:32;6.38;;;1.80;;
78783;SDS011;68127;51.050;14.084;2023-12-20T11:03:00;5.82;;;1.85;;
78783;SDS011;68127;51.050;14.084;2023-12-20T11:08:07;5.72;;;1.92;;
78783;SDS011;68127;51.050;14.084;2023-12-20T11:10:43;7.07;;;2.03;;
78783;SDS011;68127;51.050;14.084;2023-12-20T11:13:17;8.00;;;2.10;;
78783;SDS011;68127;51.050;14.084;2023-12-20T11:15:45;8.27;;;2.22;;
78783;SDS011;68127;51.050;14.084;2023-12-20T11:18:11;5.35;;;2.58;;
78783;SDS011;68127;51.050;14.084;2023-12-20T11:20:37;3.63;;;1.70;;
78783;SDS011;68127;51.050;14.084;2023-12-20T11:23:03;4.78;;;2.00;;
78783;SDS011;68127;51.050;14.084;2023-12-20T11:25:28;5.93;;;2.33;;
78783;SDS011;68127;51.050;14.084;2023-12-20T11:28:06;5.47;;;2.20;;
78783;SDS011;68127;51.050;14.084;2023-12-20T11:33:12;5.70;;;1.98;;
78783;SDS011;68127;51.050;14.084;2023-12-20T11:35:38;6.07;;;1.70;;
78783;SDS011;68127;51.050;14.084;2023-12-20T11:38:04;4.28;;;1.92;;
78783;SDS011;68127;51.050;14.084;2023-12-20T11:40:35;7.07;;;1.83;;
78783;SDS011;68127;51.050;14.084;2023-12-20T11:43:01;4.72;;;1.90;;
78783;SDS011;68127;51.050;14.084;2023-12-20T11:45:27;4.30;;;1.90;;
78783;SDS011;68127;51.050;14.084;2023-12-20T11:47:52;8.93;;;1.90;;
78783;SDS011;68127;51.050;14.084;2023-12-20T11:50:21;5.03;;;1.60;;
78783;SDS011;68127;51.050;14.084;2023-12-20T11:52:47;3.92;;;1.65;;
78783;SDS011;68127;51.050;14.084;2023-12-20T11:55:13;5.15;;;1.83;;
78783;SDS011;68127;51.050;14.084;2023-12-20T11:57:38;6.25;;;2.15;;
78783;SDS011;68127;51.050;14.084;2023-12-20T12:00:04;3.80;;;1.88;;
78783;SDS011;68127;51.050;14.084;2023-12-20T12:02:31;4.38;;;2.08;;
78783;SDS011;68127;51.050;14.084;2023-12-20T12:04:56;8.32;;;1.95;;
78783;SDS011;68127;51.050;14.084;2023-12-20T12:07:23;4.40;;;1.98;;
78783;SDS011;68127;51.050;14.084;2023-12-20T12:09:48;5.40;;;1.70;;
78783;SDS011;68127;51.050;14.084;2023-12-20T12:12:14;4.13;;;1.95;;
78783;SDS011;68127;51.050;14.084;2023-12-20T12:14:39;5.47;;;1.75;;
78783;SDS011;68127;51.050;14.084;2023-12-20T12:17:09;6.70;;;2.13;;
78783;SDS011;68127;51.050;14.084;2023-12-20T12:19:38;7.13;;;2.13;;
78783;SDS011;68127;51.050;14.084;2023-12-20T12:22:05;8.20;;;2.30;;
78783;SDS011;68127;51.050;14.084;2023-12-20T12:24:42;5.75;;;2.00;;
78783;SDS011;68127;51.050;14.084;2023-12-20T12:27:07;4.63;;;2.17;;
78783;SDS011;68127;51.050;14.084;2023-12-20T12:29:33;3.88;;;1.90;;
78783;SDS011;68127;51.050;14.084;2023-12-20T12:31:59;5.25;;;2.17;;
78783;SDS011;68127;51.050;14.084;2023-12-20T12:34:26;7.30;;;1.83;;
78783;SDS011;68127;51.050;14.084;2023-12-20T12:36:52;5.53;;;2.20;;
78783;SDS011;68127;51.050;14.084;2023-12-20T12:39:17;5.82;;;2.30;;
78783;SDS011;68127;51.050;14.084;2023-12-20T12:41:43;5.75;;;1.80;;
78783;SDS011;68127;51.050;14.084;2023-12-20T12:44:08;4.97;;;1.90;;
78783;SDS011;68127;51.050;14.084;2023-12-20T12:46:33;6.55;;;2.00;;
78783;SDS011;68127;51.050;14.084;2023-12-20T12:48:59;7.32;;;2.20;;
78783;SDS011;68127;51.050;14.084;2023-12-20T12:51:24;8.77;;;2.60;;
78783;SDS011;68127;51.050;14.084;2023-12-20T12:53:50;6.05;;;2.20;;
78783;SDS011;68127;51.050;14.084;2023-12-20T12:56:15;5.75;;;2.05;;
78783;SDS011;68127;51.050;14.084;2023-12-20T12:58:41;5.65;;;1.88;;
78783;SDS011;68127;51.050;14.084;2023-12-20T13:01:06;5.93;;;2.15;;
78783;SDS011;68127;51.050;14.084;2023-12-20T13:03:32;4.57;;;1.73;;
78783;SDS011;68127;51.050;14.084;2023-12-20T13:05:57;3.90;;;1.70;;
78783;SDS011;68127;51.050;14.084;2023-12-20T13:08:22;4.15;;;1.92;;
78783;SDS011;68127;51.050;14.084;2023-12-20T13:10:47;6.57;;;2.00;;
78783;SDS011;68127;51.050;14.084;2023-12-20T13:13:13;8.75;;;2.78;;
78783;SDS011;68127;51.050;14.084;2023-12-20T13:15:38;6.32;;;2.10;;
78783;SDS011;68127;51.050;14.084;2023-12-20T13:18:03;5.65;;;2.40;;
78783;SDS011;68127;51.050;14.084;2023-12-20T13:20:31;4.78;;;2.28;;
78783;SDS011;68127;51.050;14.084;2023-12-20T13:22:56;5.00;;;1.92;;
78783;SDS011;68127;51.050;14.084;2023-12-20T13:25:21;4.13;;;1.48;;
78783;SDS011;68127;51.050;14.084;2023-12-20T13:27:46;7.25;;;1.80;;
78783;SDS011;68127;51.050;14.084;2023-12-20T13:30:12;4.82;;;2.17;;
78783;SDS011;68127;51.050;14.084;2023-12-20T13:32:37;5.90;;;2.33;;
78783;SDS011;68127;51.050;14.084;2023-12-20T13:35:02;6.80;;;2.13;;
78783;SDS011;68127;51.050;14.084;2023-12-20T13:37:29;4.40;;;1.65;;
78783;SDS011;68127;51.050;14.084;2023-12-20T13:39:54;8.55;;;1.88;;
78783;SDS011;68127;51.050;14.084;2023-12-20T13:42:19;3.72;;;1.70;;
78783;SDS011;68127;51.050;14.084;2023-12-20T13:44:45;5.82;;;2.00;;
78783;SDS011;68127;51.050;14.084;2023-12-20T13:47:11;11.23;;;4.57;;
78783;SDS011;68127;51.050;14.084;2023-12-20T13:49:37;8.30;;;3.00;;
78783;SDS011;68127;51.050;14.084;2023-12-20T13:52:02;8.88;;;3.10;;
78783;SDS011;68127;51.050;14.084;2023-12-20T13:54:29;10.40;;;3.47;;
78783;SDS011;68127;51.050;14.084;2023-12-20T13:56:54;9.13;;;3.67;;
78783;SDS011;68127;51.050;14.084;2023-12-20T13:59:19;8.48;;;3.50;;
78783;SDS011;68127;51.050;14.084;2023-12-20T14:01:44;13.07;;;4.07;;
78783;SDS011;68127;51.050;14.084;2023-12-20T14:04:10;16.73;;;5.55;;
78783;SDS011;68127;51.050;14.084;2023-12-20T14:06:36;12.43;;;4.03;;
78783;SDS011;68127;51.050;14.084;2023-12-20T14:09:01;7.20;;;2.88;;
78783;SDS011;68127;51.050;14.084;2023-12-20T14:11:28;4.82;;;1.90;;
78783;SDS011;68127;51.050;14.084;2023-12-20T14:13:53;6.63;;;2.00;;
78783;SDS011;68127;51.050;14.084;2023-12-20T14:16:22;6.43;;;2.00;;
78783;SDS011;68127;51.050;14.084;2023-12-20T14:18:48;5.40;;;1.90;;
78783;SDS011;68127;51.050;14.084;2023-12-20T14:21:13;4.10;;;1.63;;
78783;SDS011;68127;51.050;14.084;2023-12-20T14:23:39;4.90;;;1.70;;
78783;SDS011;68127;51.050;14.084;2023-12-20T14:26:04;3.88;;;1.83;;
78783;SDS011;68127;51.050;14.084;2023-12-20T14:28:29;4.72;;;1.90;;
78783;SDS011;68127;51.050;14.084;2023-12-20T14:30:55;6.40;;;1.80;;
78783;SDS011;68127;51.050;14.084;2023-12-20T14:33:21;4.30;;;1.88;;